createdAt,value
2023-02-17T00:01:14.421Z,61.76
2023-02-17T00:03:42.180Z,61.72
2023-02-17T00:06:11.767Z,61.74
2023-02-17T00:08:38.732Z,61.75
2023-02-17T00:11:06.739Z,61.85
2023-02-17T00:13:34.054Z,62.06
2023-02-17T00:16:08.490Z,62.14
2023-02-17T00:18:36.129Z,62.08
2023-02-17T00:21:16.009Z,62.06
2023-02-17T00:23:44.053Z,61.89
2023-02-17T00:26:11.247Z,61.90
2023-02-17T00:28:38.548Z,61.94
2023-02-17T00:31:07.587Z,61.77
2023-02-17T00:33:35.135Z,61.68
2023-02-17T00:36:07.339Z,61.63
2023-02-17T00:38:34.425Z,61.62
2023-02-17T00:41:01.574Z,61.58
2023-02-17T00:43:31.182Z,61.49
2023-02-17T00:45:58.226Z,61.36
2023-02-17T00:48:25.248Z,61.31
2023-02-17T00:50:52.523Z,61.29
2023-02-17T00:53:19.574Z,61.44
2023-02-17T00:55:46.621Z,61.24
2023-02-17T00:58:13.570Z,61.45
2023-02-17T01:00:40.512Z,61.43
2023-02-17T01:03:07.986Z,61.57
2023-02-17T01:05:40.143Z,61.48
2023-02-17T01:08:07.078Z,61.47
2023-02-17T01:10:37.925Z,61.65
2023-02-17T01:13:05.371Z,61.64
2023-02-17T01:15:33.657Z,61.65
2023-02-17T01:18:00.697Z,61.57
2023-02-17T01:20:27.744Z,61.56
2023-02-17T01:22:54.689Z,61.45
2023-02-17T01:25:21.633Z,61.50
2023-02-17T01:27:48.784Z,61.51
2023-02-17T01:30:15.777Z,61.49
2023-02-17T01:32:42.882Z,61.42
2023-02-17T01:35:09.834Z,61.49
2023-02-17T01:37:36.867Z,61.45
2023-02-17T01:40:04.631Z,61.42
2023-02-17T01:42:31.880Z,61.48
2023-02-17T01:45:17.673Z,61.45
2023-02-17T01:48:25.681Z,61.65
2023-02-17T01:50:53.136Z,61.72
2023-02-17T01:53:29.699Z,61.69
2023-02-17T01:55:57.503Z,61.71
2023-02-17T01:58:26.836Z,61.68
2023-02-17T02:00:57.099Z,61.65
2023-02-17T02:03:24.548Z,61.91
2023-02-17T02:05:51.591Z,61.93
2023-02-17T02:08:18.800Z,61.89
2023-02-17T02:10:46.095Z,61.72
2023-02-17T02:13:13.245Z,61.69
2023-02-17T02:15:52.583Z,61.68
2023-02-17T02:18:25.773Z,61.56
2023-02-17T02:21:16.683Z,61.48
2023-02-17T02:23:53.211Z,61.51
2023-02-17T02:26:54.093Z,61.59
2023-02-17T02:29:38.138Z,61.55
2023-02-17T02:32:17.492Z,61.54
2023-02-17T02:35:20.771Z,61.48
2023-02-17T02:37:52.634Z,61.65
2023-02-17T02:40:24.570Z,61.54
2023-02-17T02:42:51.952Z,61.64
2023-02-17T02:45:19.716Z,61.74
2023-02-17T02:47:52.511Z,61.70
2023-02-17T02:51:01.733Z,61.76
2023-02-17T02:53:59.437Z,61.60
2023-02-17T02:56:36.910Z,61.84
2023-02-17T02:59:29.741Z,61.92
2023-02-17T03:02:00.172Z,61.89
2023-02-17T03:04:36.670Z,61.86
2023-02-17T03:07:21.436Z,61.74
2023-02-17T03:09:54.032Z,61.62
2023-02-17T03:12:22.205Z,61.49
2023-02-17T03:14:53.312Z,61.43
2023-02-17T03:17:20.347Z,61.39
2023-02-17T03:19:50.368Z,61.35
2023-02-17T03:22:29.036Z,61.37
2023-02-17T03:24:56.022Z,61.28
2023-02-17T03:27:23.028Z,61.18
2023-02-17T03:29:49.868Z,61.21
2023-02-17T03:32:18.068Z,61.17
2023-02-17T03:34:45.056Z,61.18
2023-02-17T03:37:12.445Z,61.15
2023-02-17T03:39:39.803Z,61.20
2023-02-17T03:42:06.834Z,61.07
2023-02-17T03:44:33.749Z,61.14
2023-02-17T03:47:00.797Z,61.05
2023-02-17T03:49:27.745Z,61.17
2023-02-17T03:51:54.936Z,61.06
2023-02-17T03:54:21.851Z,61.08
2023-02-17T03:56:48.722Z,61.00
2023-02-17T03:59:15.665Z,60.99
2023-02-17T04:01:42.686Z,61.01
2023-02-17T04:04:09.853Z,60.92
2023-02-17T04:06:37.015Z,60.96
2023-02-17T04:09:04.448Z,60.81
2023-02-17T04:11:31.970Z,60.75
2023-02-17T04:13:58.905Z,60.64
2023-02-17T04:16:25.768Z,60.69
2023-02-17T04:18:52.596Z,60.58
2023-02-17T04:21:19.627Z,60.71
2023-02-17T04:23:46.547Z,60.62
2023-02-17T04:26:13.570Z,60.53
2023-02-17T04:28:42.299Z,60.61
2023-02-17T04:31:10.514Z,60.66
2023-02-17T04:33:38.157Z,60.62
2023-02-17T04:36:05.916Z,60.54
2023-02-17T04:38:34.269Z,60.75
2023-02-17T04:41:01.339Z,60.56
2023-02-17T04:43:28.632Z,60.63
2023-02-17T04:45:55.711Z,60.67
2023-02-17T04:48:23.059Z,60.57
2023-02-17T04:50:49.961Z,60.58
2023-02-17T04:53:16.989Z,60.65
2023-02-17T04:55:44.174Z,60.61
2023-02-17T04:58:11.191Z,60.67
2023-02-17T05:00:38.383Z,60.72
2023-02-17T05:03:05.418Z,60.78
2023-02-17T05:05:32.364Z,60.83
2023-02-17T05:07:59.218Z,60.78
2023-02-17T05:10:26.326Z,60.65
2023-02-17T05:12:53.342Z,60.60
2023-02-17T05:15:20.944Z,60.56
2023-02-17T05:17:47.882Z,60.44
2023-02-17T05:20:14.868Z,60.52
2023-02-17T05:22:41.848Z,60.44
2023-02-17T05:25:08.935Z,60.37
2023-02-17T05:27:35.916Z,60.51
2023-02-17T05:30:03.097Z,60.38
2023-02-17T05:32:30.145Z,60.38
2023-02-17T05:34:57.044Z,60.45
2023-02-17T05:37:23.954Z,60.30
2023-02-17T05:39:50.916Z,60.36
2023-02-17T05:42:17.896Z,60.37
2023-02-17T05:44:45.300Z,60.34
2023-02-17T05:47:12.170Z,60.45
2023-02-17T05:49:39.095Z,60.37
2023-02-17T05:52:06.128Z,60.49
2023-02-17T05:54:33.171Z,60.42
2023-02-17T05:57:00.099Z,60.44
2023-02-17T05:59:27.152Z,60.61
2023-02-17T06:01:54.849Z,60.52
2023-02-17T06:04:21.983Z,60.61
2023-02-17T06:06:48.918Z,60.69
2023-02-17T06:09:15.977Z,60.62
2023-02-17T06:11:42.914Z,60.62
2023-02-17T06:14:09.852Z,60.64
2023-02-17T06:16:36.899Z,60.87
2023-02-17T06:19:05.489Z,61.01
2023-02-17T06:21:32.651Z,61.14
2023-02-17T06:23:59.594Z,61.07
2023-02-17T06:26:26.747Z,61.01
2023-02-17T06:28:54.081Z,60.91
2023-02-17T06:31:21.043Z,60.97
2023-02-17T06:33:48.594Z,60.88
2023-02-17T06:36:15.527Z,60.90
2023-02-17T06:38:42.373Z,60.86
2023-02-17T06:41:09.314Z,60.98
2023-02-17T06:43:36.264Z,61.03
2023-02-17T06:46:03.349Z,61.01
2023-02-17T06:48:33.262Z,61.20
2023-02-17T06:51:01.083Z,61.65
2023-02-17T06:53:28.138Z,61.87
2023-02-17T06:55:55.180Z,61.94
2023-02-17T06:58:22.397Z,62.09
2023-02-17T07:00:49.480Z,62.79
2023-02-17T07:03:16.435Z,63.07
2023-02-17T07:05:43.682Z,63.26
2023-02-17T07:08:10.624Z,63.12
2023-02-17T07:10:38.902Z,63.14
2023-02-17T07:13:05.973Z,62.96
2023-02-17T07:15:32.999Z,63.01
2023-02-17T07:18:02.197Z,62.86
2023-02-17T07:20:29.344Z,62.75
2023-02-17T07:22:56.490Z,62.89
2023-02-17T07:25:23.449Z,62.75
2023-02-17T07:27:50.692Z,62.71
2023-02-17T07:30:18.610Z,62.84
2023-02-17T07:32:45.606Z,62.80
2023-02-17T07:35:13.438Z,62.89
2023-02-17T07:37:40.472Z,62.79
2023-02-17T07:40:08.282Z,62.87
2023-02-17T07:42:35.227Z,63.42
2023-02-17T07:45:03.197Z,63.22
2023-02-17T07:47:30.156Z,63.07
2023-02-17T07:49:57.181Z,63.09
2023-02-17T07:52:24.187Z,62.90
2023-02-17T07:54:51.175Z,62.85
2023-02-17T07:57:18.123Z,62.76
2023-02-17T07:59:47.324Z,62.67
2023-02-17T08:02:14.498Z,62.67
2023-02-17T08:04:43.150Z,62.79
2023-02-17T08:07:10.307Z,62.72
2023-02-17T08:09:56.617Z,62.76
2023-02-17T08:12:42.693Z,62.88
2023-02-17T08:15:11.286Z,62.72
2023-02-17T08:17:38.334Z,62.84
2023-02-17T08:20:09.159Z,62.68
2023-02-17T08:22:37.185Z,62.93
2023-02-17T08:25:06.442Z,63.41
2023-02-17T08:27:33.691Z,63.40
2023-02-17T08:30:00.866Z,63.01
2023-02-17T08:32:28.378Z,63.10
2023-02-17T08:34:57.093Z,63.00
2023-02-17T08:37:24.606Z,63.01
2023-02-17T08:39:51.661Z,62.87
2023-02-17T08:42:19.921Z,62.85
2023-02-17T08:44:47.013Z,62.75
2023-02-17T08:47:14.258Z,62.69
2023-02-17T08:49:41.320Z,62.67
2023-02-17T08:52:08.465Z,62.56
2023-02-17T08:54:35.916Z,62.50
2023-02-17T08:57:03.005Z,62.62
2023-02-17T08:59:30.212Z,62.51
2023-02-17T09:01:57.813Z,62.55
2023-02-17T09:04:25.477Z,62.52
2023-02-17T09:06:56.823Z,62.68
2023-02-17T09:09:27.116Z,62.72
2023-02-17T09:11:56.217Z,62.52
2023-02-17T09:14:26.080Z,62.46
2023-02-17T09:16:54.817Z,62.41
2023-02-17T09:19:22.831Z,62.36
2023-02-17T09:21:49.832Z,62.26
2023-02-17T09:24:18.343Z,62.29
2023-02-17T09:26:45.413Z,62.23
2023-02-17T09:29:12.527Z,62.25
2023-02-17T09:31:40.082Z,62.07
2023-02-17T09:34:07.486Z,62.13
2023-02-17T09:36:40.143Z,62.19
2023-02-17T09:39:08.171Z,62.13
2023-02-17T09:41:41.734Z,62.11
2023-02-17T09:44:20.759Z,62.19
2023-02-17T09:47:03.268Z,62.09
2023-02-17T09:49:39.074Z,62.22
2023-02-17T09:52:15.434Z,62.30
2023-02-17T09:55:05.597Z,62.37
2023-02-17T09:57:46.483Z,62.29
2023-02-17T10:00:18.496Z,62.29
2023-02-17T10:02:57.782Z,62.27
2023-02-17T10:05:30.315Z,62.16
2023-02-17T10:08:06.333Z,62.12
2023-02-17T10:10:45.279Z,61.91
2023-02-17T10:13:18.095Z,61.90
2023-02-17T10:15:49.721Z,61.78
2023-02-17T10:18:25.469Z,61.72
2023-02-17T10:20:58.541Z,61.82
2023-02-17T10:23:28.093Z,61.76
2023-02-17T10:26:07.659Z,61.85
2023-02-17T10:28:37.691Z,61.85
2023-02-17T10:31:12.658Z,61.79
2023-02-17T10:33:57.961Z,61.88
2023-02-17T10:36:34.248Z,61.90
2023-02-17T10:39:06.214Z,61.88
2023-02-17T10:41:36.343Z,61.79
2023-02-17T10:44:09.191Z,62.01
2023-02-17T10:46:36.213Z,62.17
2023-02-17T10:49:05.122Z,62.00
2023-02-17T10:51:33.177Z,62.03
2023-02-17T10:54:06.678Z,62.04
2023-02-17T10:56:44.474Z,61.91
2023-02-17T10:59:35.707Z,61.76
2023-02-17T11:02:20.756Z,61.46
2023-02-17T11:04:55.114Z,60.98
2023-02-17T11:07:42.065Z,60.36
2023-02-17T11:10:29.615Z,60.76
2023-02-17T11:12:58.862Z,60.82
2023-02-17T11:15:43.273Z,60.70
2023-02-17T11:18:19.230Z,60.58
2023-02-17T11:20:46.730Z,60.64
2023-02-17T11:23:16.846Z,60.37
2023-02-17T11:25:54.575Z,60.40
2023-02-17T11:28:26.138Z,60.40
2023-02-17T11:30:59.400Z,60.40
2023-02-17T11:33:40.613Z,60.43
2023-02-17T11:36:13.762Z,60.35
2023-02-17T11:38:40.569Z,60.37
2023-02-17T11:41:08.652Z,60.50
2023-02-17T11:43:36.655Z,60.50
2023-02-17T11:46:15.563Z,60.80
2023-02-17T11:48:54.517Z,61.02
2023-02-17T11:51:30.193Z,61.44
2023-02-17T11:54:26.535Z,61.68
2023-02-17T11:57:04.700Z,61.61
2023-02-17T11:59:36.567Z,61.63
2023-02-17T12:02:06.453Z,61.49
2023-02-17T12:04:38.805Z,61.30
2023-02-17T12:07:23.249Z,61.21
2023-02-17T12:09:57.589Z,61.28
2023-02-17T12:12:37.233Z,61.34
2023-02-17T12:15:22.598Z,61.36
2023-02-17T12:18:05.059Z,61.17
2023-02-17T12:20:42.037Z,61.30
2023-02-17T12:23:17.708Z,61.08
2023-02-17T12:25:59.246Z,61.08
2023-02-17T12:28:34.932Z,61.15
2023-02-17T12:31:20.886Z,60.97
2023-02-17T12:34:05.547Z,60.82
2023-02-17T12:36:36.717Z,60.82
2023-02-17T12:39:11.837Z,60.68
2023-02-17T12:41:49.324Z,60.89
2023-02-17T12:44:21.505Z,61.08
2023-02-17T12:46:53.581Z,60.99
2023-02-17T12:49:44.095Z,61.06
2023-02-17T12:52:18.340Z,61.21
2023-02-17T12:54:51.350Z,60.98
2023-02-17T12:57:47.436Z,60.68
2023-02-17T13:00:20.417Z,60.76
2023-02-17T13:02:48.297Z,60.64
2023-02-17T13:05:29.410Z,60.51
2023-02-17T13:08:10.246Z,60.63
2023-02-17T13:10:40.008Z,60.60
2023-02-17T13:13:11.767Z,60.23
2023-02-17T13:15:43.100Z,60.24
2023-02-17T13:18:28.481Z,60.27
2023-02-17T13:21:00.378Z,60.23
2023-02-17T13:23:37.059Z,59.91
2023-02-17T13:26:24.022Z,60.00
2023-02-17T13:28:53.463Z,60.05
2023-02-17T13:31:23.747Z,59.84
2023-02-17T13:33:56.583Z,59.95
2023-02-17T13:36:29.270Z,59.97
2023-02-17T13:39:05.481Z,59.83
2023-02-17T13:41:46.638Z,59.83
2023-02-17T13:44:19.674Z,59.77
2023-02-17T13:46:47.338Z,59.77
2023-02-17T13:49:24.373Z,59.83
2023-02-17T13:51:51.615Z,59.62
2023-02-17T13:54:22.905Z,59.54
2023-02-17T13:56:54.404Z,59.58
2023-02-17T13:59:26.916Z,59.47
2023-02-17T14:01:57.946Z,59.53
2023-02-17T14:04:30.926Z,59.32
2023-02-17T14:07:00.164Z,59.30
2023-02-17T14:09:33.621Z,59.42
2023-02-17T14:12:06.953Z,59.31
2023-02-17T14:14:37.420Z,59.24
2023-02-17T14:17:15.714Z,59.49
2023-02-17T14:19:48.217Z,59.35
2023-02-17T14:22:31.213Z,59.13
2023-02-17T14:25:04.667Z,59.18
2023-02-17T14:27:51.480Z,58.84
2023-02-17T14:30:30.917Z,59.03
2023-02-17T14:33:06.050Z,58.62
2023-02-17T14:35:35.257Z,58.67
2023-02-17T14:38:32.275Z,58.64
2023-02-17T14:41:01.336Z,58.45
2023-02-17T14:43:28.832Z,58.34
2023-02-17T14:45:56.503Z,58.28
2023-02-17T14:48:27.938Z,58.49
2023-02-17T14:50:57.585Z,58.44
2023-02-17T14:53:30.829Z,58.28
2023-02-17T14:56:04.787Z,58.23
2023-02-17T14:58:32.934Z,58.33
2023-02-17T15:01:02.745Z,58.29
2023-02-17T15:03:29.930Z,58.23
2023-02-17T15:05:57.062Z,58.19
2023-02-17T15:08:34.455Z,57.91
2023-02-17T15:11:02.713Z,57.82
2023-02-17T15:13:31.849Z,57.96
2023-02-17T15:15:59.527Z,57.98
2023-02-17T15:18:28.078Z,58.20
2023-02-17T15:20:55.625Z,58.13
2023-02-17T15:23:26.656Z,57.90
2023-02-17T15:25:56.261Z,57.84
2023-02-17T15:28:23.828Z,57.89
2023-02-17T15:30:54.552Z,58.06
2023-02-17T15:33:24.337Z,57.92
2023-02-17T15:35:55.004Z,58.18
2023-02-17T15:38:23.387Z,57.95
2023-02-17T15:40:51.029Z,58.08
2023-02-17T15:43:22.082Z,58.14
2023-02-17T15:45:49.755Z,57.88
2023-02-17T15:48:24.568Z,58.00
2023-02-17T15:50:53.496Z,58.10
2023-02-17T15:53:20.582Z,58.17
2023-02-17T15:55:48.775Z,58.14
2023-02-17T15:58:22.091Z,57.98
2023-02-17T16:00:50.559Z,57.91
2023-02-17T16:03:18.071Z,58.09
2023-02-17T16:05:45.074Z,58.09
2023-02-17T16:08:12.411Z,58.00
2023-02-17T16:10:42.636Z,57.93
2023-02-17T16:13:14.767Z,58.08
2023-02-17T16:15:42.745Z,57.86
2023-02-17T16:18:28.048Z,58.03
2023-02-17T16:20:54.990Z,58.07
2023-02-17T16:23:22.044Z,58.37
2023-02-17T16:25:50.629Z,58.30
2023-02-17T16:28:21.255Z,58.51
2023-02-17T16:30:49.856Z,58.29
2023-02-17T16:33:17.565Z,58.18
2023-02-17T16:35:45.062Z,58.16
2023-02-17T16:38:22.980Z,58.15
2023-02-17T16:40:53.703Z,58.15
2023-02-17T16:43:24.081Z,58.16
2023-02-17T16:46:00.455Z,58.12
2023-02-17T16:48:32.569Z,58.10
2023-02-17T16:51:00.015Z,58.21
2023-02-17T16:53:27.161Z,58.14
2023-02-17T16:55:55.486Z,58.03
2023-02-17T16:58:25.363Z,58.14
2023-02-17T17:00:54.984Z,58.08
2023-02-17T17:03:25.257Z,58.05
2023-02-17T17:05:53.257Z,57.96
2023-02-17T17:08:24.653Z,58.07
2023-02-17T17:10:53.035Z,58.05
2023-02-17T17:13:22.111Z,58.03
2023-02-17T17:15:49.317Z,58.00
2023-02-17T17:18:22.469Z,58.08
2023-02-17T17:20:50.898Z,57.99
2023-02-17T17:23:18.986Z,58.07
2023-02-17T17:25:47.200Z,58.05
2023-02-17T17:28:19.512Z,57.93
2023-02-17T17:30:47.504Z,58.01
2023-02-17T17:33:15.302Z,57.96
2023-02-17T17:35:42.387Z,57.87
2023-02-17T17:38:14.573Z,57.73
2023-02-17T17:40:52.054Z,57.98
2023-02-17T17:43:21.587Z,58.01
2023-02-17T17:45:50.407Z,57.68
2023-02-17T17:48:18.505Z,57.59
2023-02-17T17:50:49.775Z,57.63
2023-02-17T17:53:16.840Z,57.45
2023-02-17T17:55:43.765Z,57.38
2023-02-17T17:58:10.708Z,57.29
2023-02-17T18:00:37.644Z,57.43
2023-02-17T18:03:05.412Z,57.51
2023-02-17T18:05:32.465Z,57.46
2023-02-17T18:08:00.716Z,57.37
2023-02-17T18:10:27.662Z,57.57
2023-02-17T18:12:54.613Z,57.54
2023-02-17T18:15:22.006Z,57.08
2023-02-17T18:17:49.561Z,57.23
2023-02-17T18:20:16.707Z,57.34
2023-02-17T18:22:44.151Z,57.46
2023-02-17T18:25:11.283Z,57.15
2023-02-17T18:27:40.768Z,57.28
2023-02-17T18:30:09.394Z,57.27
2023-02-17T18:32:36.553Z,57.12
2023-02-17T18:35:05.044Z,57.54
2023-02-17T18:37:33.044Z,57.37
2023-02-17T18:40:01.562Z,57.33
2023-02-17T18:42:28.572Z,57.24
2023-02-17T18:44:56.805Z,57.15
2023-02-17T18:47:26.162Z,57.29
2023-02-17T18:49:53.117Z,57.28
2023-02-17T18:52:20.158Z,57.15
2023-02-17T18:54:47.483Z,57.17
2023-02-17T18:57:15.446Z,57.04
2023-02-17T18:59:43.527Z,56.85
2023-02-17T19:02:12.246Z,56.93
2023-02-17T19:04:39.464Z,56.96
2023-02-17T19:07:08.888Z,57.04
2023-02-17T19:09:39.088Z,57.06
2023-02-17T19:12:14.286Z,56.98
2023-02-17T19:14:42.775Z,57.06
2023-02-17T19:17:12.688Z,56.82
2023-02-17T19:19:42.513Z,56.80
2023-02-17T19:22:22.863Z,57.02
2023-02-17T19:24:54.775Z,56.77
2023-02-17T19:27:25.005Z,56.83
2023-02-17T19:30:00.566Z,56.80
2023-02-17T19:32:28.329Z,56.93
2023-02-17T19:34:55.777Z,56.78
2023-02-17T19:37:22.704Z,56.67
2023-02-17T19:39:49.964Z,56.97
2023-02-17T19:42:17.141Z,56.69
2023-02-17T19:44:44.174Z,56.46
2023-02-17T19:47:11.247Z,56.39
2023-02-17T19:49:38.342Z,56.33
2023-02-17T19:52:06.725Z,56.65
2023-02-17T19:54:33.706Z,56.21
2023-02-17T19:57:00.786Z,56.14
2023-02-17T19:59:27.910Z,56.27
2023-02-17T20:01:54.847Z,56.21
2023-02-17T20:04:21.838Z,56.15
2023-02-17T20:06:49.013Z,56.01
2023-02-17T20:09:20.294Z,55.88
2023-02-17T20:11:48.883Z,55.90
2023-02-17T20:14:16.064Z,55.99
2023-02-17T20:16:43.011Z,55.82
2023-02-17T20:19:10.024Z,55.70
2023-02-17T20:21:38.682Z,55.58
2023-02-17T20:24:06.108Z,55.92
2023-02-17T20:26:38.338Z,55.71
2023-02-17T20:29:05.655Z,55.70
2023-02-17T20:31:34.810Z,55.72
2023-02-17T20:34:05.149Z,55.39
2023-02-17T20:36:33.250Z,55.29
2023-02-17T20:39:01.774Z,55.47
2023-02-17T20:41:29.320Z,55.19
2023-02-17T20:43:56.261Z,55.24
2023-02-17T20:46:28.609Z,55.18
2023-02-17T20:48:56.286Z,55.19
2023-02-17T20:51:23.703Z,55.40
2023-02-17T20:53:51.115Z,55.29
2023-02-17T20:56:21.904Z,55.35
2023-02-17T20:58:49.363Z,55.08
2023-02-17T21:01:16.729Z,55.19
2023-02-17T21:03:43.691Z,54.98
2023-02-17T21:06:22.463Z,55.02
2023-02-17T21:09:01.026Z,54.91
2023-02-17T21:11:29.092Z,54.76
2023-02-17T21:13:56.318Z,54.93
2023-02-17T21:16:27.671Z,54.75
2023-02-17T21:18:54.573Z,54.98
2023-02-17T21:21:21.546Z,54.70
2023-02-17T21:23:48.596Z,54.67
2023-02-17T21:26:16.712Z,54.78
2023-02-17T21:28:44.601Z,54.53
2023-02-17T21:31:12.390Z,54.57
2023-02-17T21:33:42.246Z,54.78
2023-02-17T21:36:11.443Z,54.92
2023-02-17T21:38:38.991Z,54.89
2023-02-17T21:41:08.651Z,54.71
2023-02-17T21:43:54.276Z,54.66
2023-02-17T21:46:22.489Z,54.74
2023-02-17T21:48:51.625Z,54.84
2023-02-17T21:51:19.812Z,54.76
2023-02-17T21:53:47.737Z,54.86
2023-02-17T21:56:15.164Z,54.92
2023-02-17T21:58:52.936Z,54.69
2023-02-17T22:01:21.207Z,54.77
2023-02-17T22:03:48.273Z,55.04
2023-02-17T22:06:19.741Z,54.87
2023-02-17T22:08:47.359Z,54.99
2023-02-17T22:11:20.056Z,54.99
2023-02-17T22:13:47.665Z,54.95
2023-02-17T22:16:15.550Z,54.96
2023-02-17T22:18:42.405Z,54.88
2023-02-17T22:21:12.262Z,54.99
2023-02-17T22:23:40.845Z,54.99
2023-02-17T22:26:15.363Z,54.91
2023-02-17T22:28:42.530Z,54.91
2023-02-17T22:31:13.092Z,54.98
2023-02-17T22:33:40.504Z,54.87
2023-02-17T22:36:10.553Z,55.05
2023-02-17T22:38:37.574Z,54.95
2023-02-17T22:41:07.487Z,55.06
2023-02-17T22:43:40.365Z,55.07
2023-02-17T22:46:09.472Z,54.94
2023-02-17T22:48:37.946Z,55.01
2023-02-17T22:51:06.486Z,54.94
2023-02-17T22:53:34.384Z,54.91
2023-02-17T22:56:01.639Z,55.00
2023-02-17T22:58:29.170Z,54.94
2023-02-17T23:01:06.527Z,55.02
2023-02-17T23:03:34.053Z,55.13
2023-02-17T23:06:23.315Z,55.04
2023-02-17T23:08:50.386Z,55.09
2023-02-17T23:11:40.959Z,55.15
2023-02-17T23:14:08.449Z,55.25
2023-02-17T23:16:35.477Z,55.26
2023-02-17T23:19:06.458Z,55.31
2023-02-17T23:21:33.390Z,55.25
2023-02-17T23:24:00.241Z,55.34
2023-02-17T23:26:27.195Z,55.36
2023-02-17T23:28:54.066Z,55.18
2023-02-17T23:31:21.176Z,55.36
2023-02-17T23:33:48.634Z,55.26
2023-02-17T23:36:16.159Z,55.36
2023-02-17T23:38:43.431Z,55.44
2023-02-17T23:41:10.849Z,55.16
2023-02-17T23:43:37.742Z,55.24
2023-02-17T23:46:06.703Z,55.10
2023-02-17T23:48:34.043Z,55.01
2023-02-17T23:51:05.987Z,55.14
2023-02-17T23:53:34.701Z,55.04
2023-02-17T23:56:04.980Z,55.11
2023-02-17T23:58:33.411Z,54.87
